CPA2703 VHHH-OMDB
Flight info
| Callsign | CPA2703 |
|---|---|
| Flight time | N/A |
| Altitude | 36000 |
| Route | PECAN V10 SIKOU/K0928S1100 A202 ASSAD/K0928F360 A206 NALAO/N0501F360 A206 LPB B465 AKSAG/N0495F380 B465 CEA A791 BPL L639 AAE/N0490F400 L639 RASKI L301 RAGMA N571 VUSET A454 PASOV B540 MIVEK P574 IMPED |
| Aircraft | A35K/H-SDE2E3GHIJ3J4J5LM1ORWXY/LB1D1 |
Departure
| Time | 2026-05-06 08:27 |
|---|---|
| Airport | Hong Kong International Airport (VHHH) |
Arrival
| Time | N/A |
|---|---|
| Airport | Dubai International Airport (OMDB) |
| Time | Latitude | Longitude | Altitude | Speed | Heading |
|---|---|---|---|---|---|
| 2026-05-06 07:08 | 22.31044 | 113.92714 | 65 ft | 0 kts | 296° |
| 2026-05-06 08:08 | 22.31044 | 113.92715 | 38 ft | 1 kts | 296° |
| 2026-05-06 08:09 | 22.31037 | 113.92729 | 37 ft | 3 kts | 295° |
| 2026-05-06 08:09 | 22.31029 | 113.92748 | 36 ft | 3 kts | 291° |
| 2026-05-06 08:09 | 22.31022 | 113.92769 | 35 ft | 3 kts | 285° |
| 2026-05-06 08:09 | 22.31017 | 113.92790 | 35 ft | 3 kts | 279° |
| 2026-05-06 08:10 | 22.31015 | 113.92812 | 34 ft | 3 kts | 272° |
| 2026-05-06 08:10 | 22.31015 | 113.92831 | 34 ft | 1 kts | 265° |
| 2026-05-06 08:10 | 22.31015 | 113.92834 | 34 ft | 0 kts | 265° |
| 2026-05-06 08:14 | 22.31015 | 113.92827 | 38 ft | 7 kts | 265° |
| 2026-05-06 08:14 | 22.30932 | 113.92751 | 38 ft | 26 kts | 202° |
| 2026-05-06 08:15 | 22.30816 | 113.92643 | 38 ft | 19 kts | 245° |
| 2026-05-06 08:15 | 22.30767 | 113.92493 | 38 ft | 23 kts | 250° |
| 2026-05-06 08:15 | 22.30711 | 113.92320 | 38 ft | 26 kts | 251° |
| 2026-05-06 08:15 | 22.30650 | 113.92129 | 38 ft | 28 kts | 251° |
| 2026-05-06 08:16 | 22.30583 | 113.91923 | 38 ft | 30 kts | 250° |
| 2026-05-06 08:16 | 22.30520 | 113.91731 | 38 ft | 7 kts | 250° |
| 2026-05-06 08:16 | 22.30516 | 113.91719 | 38 ft | 3 kts | 251° |
| 2026-05-06 08:16 | 22.30504 | 113.91683 | 38 ft | 7 kts | 251° |
| 2026-05-06 08:17 | 22.30482 | 113.91615 | 38 ft | 12 kts | 251° |
| 2026-05-06 08:17 | 22.30451 | 113.91517 | 38 ft | 16 kts | 251° |
| 2026-05-06 08:17 | 22.30410 | 113.91392 | 38 ft | 19 kts | 251° |
| 2026-05-06 08:17 | 22.30361 | 113.91242 | 38 ft | 23 kts | 250° |
| 2026-05-06 08:18 | 22.30306 | 113.91072 | 38 ft | 25 kts | 250° |
| 2026-05-06 08:18 | 22.30247 | 113.90885 | 38 ft | 28 kts | 252° |
| 2026-05-06 08:18 | 22.30184 | 113.90679 | 38 ft | 30 kts | 251° |
| 2026-05-06 08:18 | 22.30111 | 113.90462 | 38 ft | 31 kts | 251° |
| 2026-05-06 08:19 | 22.30062 | 113.90308 | 38 ft | 33 kts | 251° |
| 2026-05-06 08:19 | 22.29960 | 113.89991 | 38 ft | 35 kts | 251° |
| 2026-05-06 08:19 | 22.29908 | 113.89829 | 38 ft | 0 kts | 251° |
| 2026-05-06 08:24 | 22.29907 | 113.89827 | 38 ft | 2 kts | 251° |
| 2026-05-06 08:24 | 22.29898 | 113.89800 | 38 ft | 6 kts | 251° |
| 2026-05-06 08:24 | 22.29887 | 113.89766 | 38 ft | 9 kts | 245° |
| 2026-05-06 08:24 | 22.29821 | 113.89740 | 38 ft | 9 kts | 174° |
| 2026-05-06 08:25 | 22.29754 | 113.89762 | 38 ft | 12 kts | 161° |
| 2026-05-06 08:25 | 22.29665 | 113.89795 | 36 ft | 15 kts | 153° |
| 2026-05-06 08:25 | 22.29649 | 113.89889 | 36 ft | 14 kts | 78° |
| 2026-05-06 08:25 | 22.29669 | 113.89955 | 36 ft | 12 kts | 71° |
| 2026-05-06 08:26 | 22.29672 | 113.89964 | 36 ft | 0 kts | 71° |
| 2026-05-06 08:26 | 22.29707 | 113.90074 | 36 ft | 47 kts | 71° |
| 2026-05-06 08:26 | 22.29884 | 113.90632 | 37 ft | 109 kts | 71° |
| 2026-05-06 08:27 | 22.30076 | 113.91226 | 38 ft | 144 kts | 71° |
| 2026-05-06 08:27 | 22.30626 | 113.92771 | 529 ft | 170 kts | 70° |
| 2026-05-06 08:27 | 22.31073 | 113.93946 | 1088 ft | 180 kts | 69° |
| 2026-05-06 08:27 | 22.31418 | 113.94881 | 1348 ft | 195 kts | 73° |
| 2026-05-06 08:28 | 22.31436 | 113.94938 | 1356 ft | 195 kts | 73° |
| 2026-05-06 08:28 | 22.31856 | 113.96405 | 1706 ft | 211 kts | 75° |
| 2026-05-06 08:29 | 22.32301 | 113.97945 | 2259 ft | 216 kts | 73° |
| 2026-05-06 08:29 | 22.32775 | 113.99509 | 2736 ft | 222 kts | 73° |
| 2026-05-06 08:29 | 22.33277 | 114.01124 | 3190 ft | 231 kts | 73° |
| 2026-05-06 08:29 | 22.33739 | 114.02811 | 3644 ft | 237 kts | 79° |
| 2026-05-06 08:30 | 22.33780 | 114.04595 | 4133 ft | 240 kts | 101° |
| 2026-05-06 08:30 | 22.33213 | 114.06293 | 4617 ft | 243 kts | 124° |
| 2026-05-06 08:30 | 22.32107 | 114.07650 | 5167 ft | 243 kts | 145° |
| 2026-05-06 08:30 | 22.30650 | 114.08482 | 5754 ft | 239 kts | 166° |
| 2026-05-06 08:31 | 22.30529 | 114.08521 | 5795 ft | 239 kts | 168° |
| 2026-05-06 08:31 | 22.29483 | 114.08711 | 6198 ft | 237 kts | 179° |
| 2026-05-06 08:31 | 22.27821 | 114.08734 | 6797 ft | 240 kts | 183° |
| 2026-05-06 08:31 | 22.26145 | 114.08715 | 7410 ft | 243 kts | 183° |
| 2026-05-06 08:32 | 22.24446 | 114.08705 | 8049 ft | 246 kts | 183° |
| 2026-05-06 08:32 | 22.22681 | 114.08695 | 8433 ft | 263 kts | 183° |
| 2026-05-06 08:32 | 22.20794 | 114.08665 | 8815 ft | 277 kts | 183° |
| 2026-05-06 08:32 | 22.18844 | 114.08655 | 9426 ft | 284 kts | 181° |
| 2026-05-06 08:33 | 22.16882 | 114.09081 | 10010 ft | 295 kts | 158° |
| 2026-05-06 08:33 | 22.15719 | 114.09873 | 10287 ft | 308 kts | 140° |
| 2026-05-06 08:33 | 22.14070 | 114.12503 | 10671 ft | 333 kts | 118° |
| 2026-05-06 08:33 | 22.13035 | 114.14805 | 10958 ft | 348 kts | 117° |
| 2026-05-06 08:34 | 22.12310 | 114.16406 | 11170 ft | 357 kts | 117° |
| 2026-05-06 08:34 | 22.09608 | 114.22198 | 11817 ft | 385 kts | 118° |
| 2026-05-06 08:34 | 22.08771 | 114.23951 | 12004 ft | 392 kts | 119° |
| 2026-05-06 08:35 | 22.06561 | 114.27084 | 12308 ft | 401 kts | 141° |
| 2026-05-06 08:35 | 22.05115 | 114.28334 | 12533 ft | 405 kts | 145° |
| 2026-05-06 08:35 | 22.02824 | 114.30134 | 12891 ft | 410 kts | 146° |
| 2026-05-06 08:35 | 21.99655 | 114.32459 | 13424 ft | 414 kts | 153° |
| 2026-05-06 08:36 | 21.97914 | 114.33284 | 13674 ft | 413 kts | 165° |
| 2026-05-06 08:36 | 21.95098 | 114.33762 | 14038 ft | 409 kts | 183° |
| 2026-05-06 08:36 | 21.92308 | 114.33289 | 14420 ft | 406 kts | 200° |
| 2026-05-06 08:36 | 21.89799 | 114.31940 | 14805 ft | 402 kts | 218° |
| 2026-05-06 08:37 | 21.89600 | 114.31785 | 14835 ft | 402 kts | 219° |
| 2026-05-06 08:37 | 21.88662 | 114.30918 | 14993 ft | 402 kts | 226° |
| 2026-05-06 08:38 | 21.86918 | 114.28576 | 15367 ft | 402 kts | 235° |
| 2026-05-06 08:38 | 21.85043 | 114.26335 | 15713 ft | 406 kts | 223° |
| 2026-05-06 08:38 | 21.82865 | 114.24376 | 16052 ft | 410 kts | 220° |
| 2026-05-06 08:38 | 21.80628 | 114.22475 | 16412 ft | 411 kts | 220° |
| 2026-05-06 08:39 | 21.78365 | 114.20562 | 16770 ft | 414 kts | 219° |
| 2026-05-06 08:39 | 21.76131 | 114.18670 | 17123 ft | 415 kts | 219° |
| 2026-05-06 08:39 | 21.73828 | 114.16718 | 17494 ft | 417 kts | 219° |
| 2026-05-06 08:39 | 21.71574 | 114.14805 | 17824 ft | 419 kts | 219° |
| 2026-05-06 08:40 | 21.69270 | 114.12850 | 18168 ft | 421 kts | 219° |
| 2026-05-06 08:40 | 21.66960 | 114.10897 | 18456 ft | 424 kts | 219° |
| 2026-05-06 08:40 | 21.64469 | 114.09170 | 18766 ft | 428 kts | 208° |
| 2026-05-06 08:40 | 21.61665 | 114.08065 | 19047 ft | 432 kts | 197° |
| 2026-05-06 08:41 | 21.58735 | 114.07278 | 19338 ft | 434 kts | 195° |
| 2026-05-06 08:41 | 21.55793 | 114.06535 | 19603 ft | 437 kts | 195° |
| 2026-05-06 08:41 | 21.52825 | 114.05783 | 19877 ft | 439 kts | 195° |
| 2026-05-06 08:41 | 21.49853 | 114.05023 | 20166 ft | 441 kts | 195° |
| 2026-05-06 08:42 | 21.46867 | 114.04251 | 20482 ft | 442 kts | 196° |
| 2026-05-06 08:42 | 21.43941 | 114.03226 | 20781 ft | 441 kts | 206° |
| 2026-05-06 08:42 | 21.41224 | 114.01692 | 21104 ft | 441 kts | 212° |
| 2026-05-06 08:42 | 21.38622 | 113.99960 | 21414 ft | 442 kts | 215° |
| 2026-05-06 08:43 | 21.36088 | 113.98158 | 21719 ft | 444 kts | 216° |
| 2026-05-06 08:43 | 21.33535 | 113.96299 | 22033 ft | 445 kts | 216° |
| 2026-05-06 08:43 | 21.30963 | 113.94422 | 22366 ft | 447 kts | 216° |
| 2026-05-06 08:43 | 21.28376 | 113.92550 | 22687 ft | 449 kts | 216° |
| 2026-05-06 08:44 | 21.25769 | 113.90682 | 23002 ft | 452 kts | 216° |
| 2026-05-06 08:44 | 21.23216 | 113.88868 | 23309 ft | 454 kts | 216° |
| 2026-05-06 08:44 | 21.20581 | 113.87006 | 23617 ft | 456 kts | 216° |
| 2026-05-06 08:44 | 21.17924 | 113.85133 | 23903 ft | 457 kts | 216° |
| 2026-05-06 08:45 | 21.15260 | 113.83257 | 24184 ft | 459 kts | 216° |
| 2026-05-06 08:45 | 21.12683 | 113.81230 | 24465 ft | 459 kts | 222° |
| 2026-05-06 08:45 | 21.10376 | 113.78861 | 24742 ft | 459 kts | 230° |
| 2026-05-06 08:45 | 21.08440 | 113.76159 | 25036 ft | 459 kts | 239° |
| 2026-05-06 08:46 | 21.06929 | 113.73137 | 25359 ft | 460 kts | 248° |
| 2026-05-06 08:46 | 21.05747 | 113.69949 | 25685 ft | 461 kts | 250° |
| 2026-05-06 08:46 | 21.04668 | 113.66695 | 26027 ft | 463 kts | 252° |
| 2026-05-06 08:46 | 21.03637 | 113.63432 | 26335 ft | 466 kts | 252° |
| 2026-05-06 08:47 | 21.02610 | 113.60145 | 26638 ft | 470 kts | 252° |
| 2026-05-06 08:47 | 21.01564 | 113.56823 | 27000 ft | 472 kts | 252° |
| 2026-05-06 08:47 | 21.00502 | 113.53488 | 27384 ft | 474 kts | 251° |
| 2026-05-06 08:47 | 20.99430 | 113.50156 | 27726 ft | 476 kts | 251° |
| 2026-05-06 08:48 | 20.98359 | 113.46850 | 28050 ft | 478 kts | 251° |
| 2026-05-06 08:48 | 20.97266 | 113.43490 | 28384 ft | 481 kts | 251° |
| 2026-05-06 08:48 | 20.96158 | 113.40090 | 28719 ft | 483 kts | 251° |
| 2026-05-06 08:48 | 20.95049 | 113.36691 | 29015 ft | 486 kts | 251° |
| 2026-05-06 08:49 | 20.93932 | 113.33267 | 29305 ft | 488 kts | 251° |
| 2026-05-06 08:49 | 20.92816 | 113.29851 | 29691 ft | 488 kts | 251° |
| 2026-05-06 08:49 | 20.91695 | 113.26420 | 30125 ft | 487 kts | 251° |
| 2026-05-06 08:49 | 20.90589 | 113.23036 | 30480 ft | 486 kts | 252° |
| 2026-05-06 08:50 | 20.89485 | 113.19659 | 30811 ft | 486 kts | 252° |
| 2026-05-06 08:50 | 20.88363 | 113.16233 | 31146 ft | 485 kts | 252° |
| 2026-05-06 08:50 | 20.87255 | 113.12849 | 31480 ft | 484 kts | 252° |
| 2026-05-06 08:50 | 20.86152 | 113.09485 | 31818 ft | 483 kts | 252° |
| 2026-05-06 08:51 | 20.85025 | 113.06049 | 32141 ft | 483 kts | 252° |
| 2026-05-06 08:51 | 20.83914 | 113.02664 | 32447 ft | 483 kts | 252° |
| 2026-05-06 08:51 | 20.82817 | 112.99325 | 32741 ft | 482 kts | 252° |
| 2026-05-06 08:51 | 20.81708 | 112.95950 | 33065 ft | 481 kts | 252° |
| 2026-05-06 08:52 | 20.80599 | 112.92579 | 33376 ft | 480 kts | 252° |
| 2026-05-06 08:52 | 20.79489 | 112.89210 | 33689 ft | 479 kts | 252° |
| 2026-05-06 08:52 | 20.78385 | 112.85861 | 33968 ft | 479 kts | 252° |
| 2026-05-06 08:52 | 20.77274 | 112.82491 | 34212 ft | 478 kts | 252° |
| 2026-05-06 08:53 | 20.76175 | 112.79161 | 34435 ft | 478 kts | 252° |
| 2026-05-06 08:53 | 20.75066 | 112.75801 | 34643 ft | 478 kts | 252° |
| 2026-05-06 08:53 | 20.73958 | 112.72449 | 34830 ft | 479 kts | 252° |
| 2026-05-06 08:53 | 20.72850 | 112.69097 | 35060 ft | 478 kts | 252° |
| 2026-05-06 08:54 | 20.71743 | 112.65752 | 35294 ft | 477 kts | 252° |
| 2026-05-06 08:54 | 20.70636 | 112.62412 | 35503 ft | 477 kts | 252° |
| 2026-05-06 08:54 | 20.69533 | 112.59083 | 35710 ft | 476 kts | 252° |
| 2026-05-06 08:54 | 20.68425 | 112.55743 | 35872 ft | 477 kts | 252° |
| 2026-05-06 08:55 | 20.67315 | 112.52394 | 35892 ft | 481 kts | 252° |
| 2026-05-06 08:55 | 20.65076 | 112.45655 | 35889 ft | 482 kts | 252° |
| 2026-05-06 08:56 | 20.62844 | 112.38950 | 35891 ft | 482 kts | 252° |
| 2026-05-06 08:56 | 20.60607 | 112.32238 | 35892 ft | 482 kts | 252° |
| 2026-05-06 08:57 | 20.58362 | 112.25509 | 35889 ft | 482 kts | 252° |
| 2026-05-06 08:57 | 20.56789 | 112.18595 | 35884 ft | 478 kts | 266° |
| 2026-05-06 08:58 | 20.57174 | 112.11624 | 35883 ft | 474 kts | 284° |
| 2026-05-06 08:58 | 20.59491 | 112.05047 | 35884 ft | 475 kts | 295° |
| 2026-05-06 08:59 | 20.62369 | 111.98690 | 35885 ft | 476 kts | 296° |
| 2026-05-06 08:59 | 20.65295 | 111.92341 | 35884 ft | 476 kts | 296° |
| 2026-05-06 09:00 | 20.68186 | 111.85985 | 35885 ft | 476 kts | 295° |
| 2026-05-06 09:00 | 20.71054 | 111.79621 | 35889 ft | 476 kts | 295° |
| 2026-05-06 09:01 | 20.73921 | 111.73240 | 35886 ft | 475 kts | 295° |
| 2026-05-06 09:01 | 20.76765 | 111.66905 | 35884 ft | 476 kts | 295° |
| 2026-05-06 09:02 | 20.79629 | 111.60520 | 35882 ft | 476 kts | 295° |
| 2026-05-06 09:02 | 20.82013 | 111.53945 | 35890 ft | 475 kts | 283° |
| 2026-05-06 09:03 | 20.82568 | 111.46926 | 35985 ft | 476 kts | 266° |
| 2026-05-06 09:03 | 20.81087 | 111.40059 | 35980 ft | 479 kts | 253° |
| 2026-05-06 09:04 | 20.78847 | 111.33334 | 35976 ft | 480 kts | 251° |
| 2026-05-06 09:04 | 20.76528 | 111.26631 | 35976 ft | 481 kts | 251° |
| 2026-05-06 09:05 | 20.74238 | 111.19923 | 35981 ft | 480 kts | 252° |
| 2026-05-06 09:05 | 20.71971 | 111.13208 | 35968 ft | 480 kts | 252° |
| 2026-05-06 09:06 | 20.69705 | 111.06486 | 35971 ft | 480 kts | 252° |
| 2026-05-06 09:06 | 20.67453 | 110.99814 | 35964 ft | 480 kts | 252° |
| 2026-05-06 09:07 | 20.65182 | 110.93100 | 35968 ft | 480 kts | 252° |
| 2026-05-06 09:07 | 20.62911 | 110.86397 | 35971 ft | 480 kts | 252° |
| 2026-05-06 09:08 | 20.60660 | 110.79681 | 35986 ft | 480 kts | 252° |
| 2026-05-06 09:08 | 20.58414 | 110.72976 | 35968 ft | 480 kts | 252° |
| 2026-05-06 09:09 | 20.56160 | 110.66273 | 35966 ft | 480 kts | 252° |
| 2026-05-06 09:09 | 20.53901 | 110.59574 | 35982 ft | 480 kts | 252° |
| 2026-05-06 09:10 | 20.51615 | 110.52877 | 35960 ft | 480 kts | 249° |
| 2026-05-06 09:10 | 20.48322 | 110.46718 | 35975 ft | 484 kts | 235° |
| 2026-05-06 09:11 | 20.44149 | 110.41057 | 35974 ft | 485 kts | 233° |
| 2026-05-06 09:11 | 20.39859 | 110.35500 | 35974 ft | 485 kts | 233° |
| 2026-05-06 09:12 | 20.35569 | 110.29946 | 35953 ft | 485 kts | 233° |
| 2026-05-06 09:12 | 20.31285 | 110.24366 | 35969 ft | 485 kts | 233° |
| 2026-05-06 09:13 | 20.27034 | 110.18784 | 35961 ft | 485 kts | 233° |
| 2026-05-06 09:13 | 20.22835 | 110.13152 | 35963 ft | 486 kts | 234° |
| 2026-05-06 09:14 | 20.18631 | 110.07515 | 35954 ft | 486 kts | 234° |
| 2026-05-06 09:14 | 20.14439 | 110.01921 | 35957 ft | 486 kts | 233° |
| 2026-05-06 09:15 | 20.10209 | 109.96292 | 35956 ft | 486 kts | 233° |
| 2026-05-06 09:15 | 20.05975 | 109.90666 | 35957 ft | 486 kts | 233° |
| 2026-05-06 09:16 | 20.01747 | 109.85051 | 35957 ft | 486 kts | 233° |
| 2026-05-06 09:16 | 19.97537 | 109.79465 | 35949 ft | 486 kts | 233° |
| 2026-05-06 09:17 | 19.93297 | 109.73844 | 35953 ft | 488 kts | 233° |
| 2026-05-06 09:17 | 19.89025 | 109.68187 | 35954 ft | 488 kts | 233° |
| 2026-05-06 09:18 | 19.84800 | 109.62597 | 35953 ft | 488 kts | 233° |
| 2026-05-06 09:18 | 19.80547 | 109.56976 | 35954 ft | 488 kts | 233° |
| 2026-05-06 09:19 | 19.76291 | 109.51355 | 35953 ft | 488 kts | 233° |
| 2026-05-06 09:19 | 19.72033 | 109.45738 | 35955 ft | 488 kts | 233° |
| 2026-05-06 09:20 | 19.67771 | 109.40120 | 35954 ft | 489 kts | 233° |
| 2026-05-06 09:20 | 19.63496 | 109.34490 | 35956 ft | 490 kts | 233° |
| 2026-05-06 09:21 | 19.59218 | 109.28864 | 35956 ft | 490 kts | 233° |
| 2026-05-06 09:21 | 19.55663 | 109.24190 | 35954 ft | 490 kts | 233° |
| 2026-05-06 09:22 | 19.50676 | 109.17649 | 35956 ft | 490 kts | 233° |
| 2026-05-06 09:22 | 19.46366 | 109.12053 | 35956 ft | 490 kts | 233° |
| 2026-05-06 09:23 | 19.42741 | 109.07359 | 35951 ft | 491 kts | 233° |
| 2026-05-06 09:23 | 19.38444 | 109.01796 | 35957 ft | 492 kts | 233° |
| 2026-05-06 09:24 | 19.34107 | 108.96183 | 35950 ft | 492 kts | 233° |
| 2026-05-06 09:24 | 19.29769 | 108.90574 | 35951 ft | 492 kts | 233° |
| 2026-05-06 09:25 | 19.25435 | 108.84974 | 35951 ft | 492 kts | 233° |
| 2026-05-06 09:25 | 19.21092 | 108.79374 | 35948 ft | 492 kts | 233° |
| 2026-05-06 09:26 | 19.16782 | 108.73809 | 35945 ft | 492 kts | 233° |
| 2026-05-06 09:26 | 19.12440 | 108.68208 | 35946 ft | 493 kts | 233° |
| 2026-05-06 09:27 | 19.08094 | 108.62611 | 35945 ft | 493 kts | 233° |
| 2026-05-06 09:27 | 19.03743 | 108.57013 | 35942 ft | 493 kts | 233° |
| 2026-05-06 09:28 | 18.99384 | 108.51410 | 35942 ft | 493 kts | 233° |
| 2026-05-06 09:28 | 18.95022 | 108.45808 | 35942 ft | 493 kts | 233° |
| 2026-05-06 09:29 | 18.90692 | 108.40252 | 35939 ft | 493 kts | 233° |
| 2026-05-06 09:29 | 18.86331 | 108.34661 | 35935 ft | 493 kts | 233° |
| 2026-05-06 09:30 | 18.81973 | 108.29080 | 35941 ft | 493 kts | 233° |
| 2026-05-06 09:30 | 18.77604 | 108.23489 | 35942 ft | 493 kts | 233° |
| 2026-05-06 09:31 | 18.73234 | 108.17902 | 35943 ft | 493 kts | 232° |
| 2026-05-06 09:31 | 18.68868 | 108.12326 | 35942 ft | 493 kts | 232° |
| 2026-05-06 09:32 | 18.64501 | 108.06753 | 35942 ft | 493 kts | 232° |
| 2026-05-06 09:32 | 18.60153 | 108.01209 | 35942 ft | 493 kts | 232° |
| 2026-05-06 09:33 | 18.55779 | 107.95636 | 35943 ft | 493 kts | 232° |
| 2026-05-06 09:33 | 18.51404 | 107.90067 | 35942 ft | 493 kts | 232° |
| 2026-05-06 09:34 | 18.47019 | 107.84492 | 35939 ft | 494 kts | 232° |
| 2026-05-06 09:34 | 18.42631 | 107.78916 | 35939 ft | 493 kts | 232° |
| 2026-05-06 09:35 | 18.38552 | 107.73138 | 35935 ft | 490 kts | 243° |
| 2026-05-06 09:35 | 18.36159 | 107.66539 | 35937 ft | 485 kts | 261° |
| 2026-05-06 09:36 | 18.35931 | 107.59509 | 35936 ft | 482 kts | 279° |
| 2026-05-06 09:36 | 18.37171 | 107.52565 | 35934 ft | 482 kts | 283° |
| 2026-05-06 09:37 | 18.38601 | 107.45653 | 35930 ft | 482 kts | 283° |
| 2026-05-06 09:37 | 18.40008 | 107.38788 | 35932 ft | 482 kts | 282° |
| 2026-05-06 09:38 | 18.41386 | 107.31886 | 35931 ft | 482 kts | 282° |
| 2026-05-06 09:38 | 18.42754 | 107.24956 | 35931 ft | 482 kts | 282° |
| 2026-05-06 09:39 | 18.44116 | 107.18031 | 35925 ft | 482 kts | 282° |
| 2026-05-06 09:39 | 18.45479 | 107.11099 | 35925 ft | 482 kts | 282° |
| 2026-05-06 09:40 | 18.46830 | 107.04220 | 35922 ft | 482 kts | 282° |
| 2026-05-06 09:40 | 18.48868 | 106.93824 | 35924 ft | 483 kts | 282° |
| 2026-05-06 09:41 | 18.50215 | 106.86898 | 35920 ft | 483 kts | 282° |
| 2026-05-06 09:41 | 18.51562 | 106.79972 | 35920 ft | 483 kts | 282° |
| 2026-05-06 09:42 | 18.52907 | 106.73044 | 35921 ft | 483 kts | 282° |
| 2026-05-06 09:42 | 18.54252 | 106.66111 | 35921 ft | 483 kts | 282° |
| 2026-05-06 09:43 | 18.55596 | 106.59166 | 35914 ft | 484 kts | 282° |
| 2026-05-06 09:43 | 18.56955 | 106.52214 | 35914 ft | 484 kts | 282° |
| 2026-05-06 09:44 | 18.58317 | 106.45269 | 35915 ft | 484 kts | 282° |
| 2026-05-06 09:44 | 18.59675 | 106.38326 | 35914 ft | 484 kts | 282° |
| 2026-05-06 09:45 | 18.61022 | 106.31426 | 35911 ft | 483 kts | 282° |
| 2026-05-06 09:45 | 18.62372 | 106.24491 | 35912 ft | 482 kts | 282° |
| 2026-05-06 09:46 | 18.63720 | 106.17547 | 35911 ft | 482 kts | 282° |
| 2026-05-06 09:46 | 18.65065 | 106.10613 | 35915 ft | 482 kts | 282° |
| 2026-05-06 09:47 | 18.66407 | 106.03676 | 35915 ft | 482 kts | 282° |
| 2026-05-06 09:47 | 18.67721 | 105.96786 | 35915 ft | 483 kts | 281° |
| 2026-05-06 09:48 | 18.69043 | 105.89843 | 35915 ft | 483 kts | 281° |
| 2026-05-06 09:48 | 18.70365 | 105.82895 | 35912 ft | 483 kts | 281° |
| 2026-05-06 09:49 | 18.71688 | 105.75944 | 35909 ft | 483 kts | 281° |
| 2026-05-06 09:49 | 18.73012 | 105.69003 | 35908 ft | 483 kts | 282° |
| 2026-05-06 09:50 | 18.74998 | 105.62232 | 35907 ft | 482 kts | 289° |
| 2026-05-06 09:50 | 18.77267 | 105.55561 | 35907 ft | 483 kts | 290° |
| 2026-05-06 09:51 | 18.79560 | 105.48941 | 35905 ft | 483 kts | 290° |
| 2026-05-06 09:51 | 18.81861 | 105.42275 | 35904 ft | 482 kts | 289° |
| 2026-05-06 09:52 | 18.84143 | 105.35624 | 35906 ft | 482 kts | 289° |
| 2026-05-06 09:52 | 18.86425 | 105.28955 | 35906 ft | 482 kts | 289° |
| 2026-05-06 09:53 | 18.88683 | 105.22348 | 35906 ft | 481 kts | 289° |
| 2026-05-06 09:53 | 18.90948 | 105.15711 | 35904 ft | 481 kts | 289° |
| 2026-05-06 09:54 | 18.93215 | 105.09062 | 35904 ft | 481 kts | 289° |
| 2026-05-06 09:54 | 18.95478 | 105.02417 | 35909 ft | 481 kts | 289° |
| 2026-05-06 09:55 | 18.97739 | 104.95766 | 35910 ft | 481 kts | 289° |
| 2026-05-06 09:55 | 19.00001 | 104.89105 | 35916 ft | 482 kts | 289° |
| 2026-05-06 09:56 | 19.02262 | 104.82439 | 35915 ft | 483 kts | 289° |
| 2026-05-06 09:56 | 19.04515 | 104.75786 | 35916 ft | 483 kts | 289° |
| 2026-05-06 09:57 | 19.06777 | 104.69100 | 35919 ft | 483 kts | 289° |
| 2026-05-06 09:57 | 19.09039 | 104.62403 | 35914 ft | 483 kts | 289° |
| 2026-05-06 09:58 | 19.11298 | 104.55706 | 35913 ft | 483 kts | 289° |
| 2026-05-06 09:58 | 19.13551 | 104.49018 | 35917 ft | 483 kts | 289° |
| 2026-05-06 09:59 | 19.15806 | 104.42314 | 35918 ft | 483 kts | 289° |
| 2026-05-06 09:59 | 19.18056 | 104.35618 | 35931 ft | 483 kts | 289° |
| 2026-05-06 10:00 | 19.20289 | 104.28960 | 35933 ft | 483 kts | 289° |
| 2026-05-06 10:00 | 19.22533 | 104.22264 | 35935 ft | 483 kts | 289° |
| 2026-05-06 10:01 | 19.24775 | 104.15567 | 35942 ft | 483 kts | 289° |
| 2026-05-06 10:01 | 19.27021 | 104.08850 | 35940 ft | 484 kts | 288° |
| 2026-05-06 10:02 | 19.29263 | 104.02128 | 35953 ft | 484 kts | 288° |
| 2026-05-06 10:02 | 19.31502 | 103.95405 | 35950 ft | 484 kts | 288° |
| 2026-05-06 10:03 | 19.33733 | 103.88685 | 35956 ft | 484 kts | 288° |
| 2026-05-06 10:03 | 19.35927 | 103.81938 | 35957 ft | 483 kts | 288° |
| 2026-05-06 10:04 | 19.38103 | 103.75217 | 35958 ft | 482 kts | 288° |
| 2026-05-06 10:04 | 19.40266 | 103.68551 | 35956 ft | 482 kts | 288° |
| 2026-05-06 10:05 | 19.42447 | 103.61833 | 35952 ft | 482 kts | 288° |
| 2026-05-06 10:05 | 19.44677 | 103.55135 | 35954 ft | 482 kts | 289° |
| 2026-05-06 10:06 | 19.46973 | 103.48463 | 35958 ft | 482 kts | 289° |
| 2026-05-06 10:06 | 19.49274 | 103.41753 | 35960 ft | 484 kts | 289° |
| 2026-05-06 10:07 | 19.51563 | 103.35036 | 35959 ft | 485 kts | 289° |
| 2026-05-06 10:07 | 19.53833 | 103.28348 | 35956 ft | 485 kts | 289° |
| 2026-05-06 10:08 | 19.56116 | 103.21610 | 35956 ft | 485 kts | 289° |
| 2026-05-06 10:08 | 19.58399 | 103.14862 | 35943 ft | 485 kts | 289° |
| 2026-05-06 10:09 | 19.60672 | 103.08135 | 35943 ft | 485 kts | 289° |
| 2026-05-06 10:09 | 19.62563 | 103.02533 | 35937 ft | 485 kts | 289° |
| 2026-05-06 10:10 | 19.64831 | 102.95806 | 35936 ft | 485 kts | 289° |
| 2026-05-06 10:10 | 19.67102 | 102.89062 | 35938 ft | 485 kts | 289° |
| 2026-05-06 10:11 | 19.69364 | 102.82334 | 35932 ft | 484 kts | 289° |
| 2026-05-06 10:11 | 19.71608 | 102.75650 | 35930 ft | 483 kts | 289° |
| 2026-05-06 10:12 | 19.73859 | 102.68935 | 35926 ft | 482 kts | 289° |
| 2026-05-06 10:12 | 19.76107 | 102.62223 | 35906 ft | 482 kts | 289° |
| 2026-05-06 10:13 | 19.78355 | 102.55513 | 35904 ft | 482 kts | 289° |
| 2026-05-06 10:13 | 19.80597 | 102.48791 | 35904 ft | 482 kts | 289° |
| 2026-05-06 10:14 | 19.82831 | 102.42082 | 35894 ft | 482 kts | 289° |
| 2026-05-06 10:14 | 19.85057 | 102.35395 | 35895 ft | 482 kts | 289° |
| 2026-05-06 10:15 | 19.87291 | 102.28678 | 35894 ft | 482 kts | 289° |
| 2026-05-06 10:15 | 19.89522 | 102.21956 | 35893 ft | 482 kts | 289° |
| 2026-05-06 10:16 | 19.92133 | 102.15396 | 35849 ft | 483 kts | 297° |
| 2026-05-06 10:16 | 19.95394 | 102.09148 | 35846 ft | 483 kts | 298° |
| 2026-05-06 10:17 | 19.98745 | 102.02948 | 35862 ft | 483 kts | 298° |
| 2026-05-06 10:17 | 20.02072 | 101.96799 | 35877 ft | 483 kts | 298° |
| 2026-05-06 10:18 | 20.05408 | 101.90601 | 35892 ft | 483 kts | 298° |
| 2026-05-06 10:18 | 20.08736 | 101.84395 | 35926 ft | 482 kts | 298° |
| 2026-05-06 10:19 | 20.12055 | 101.78197 | 35925 ft | 481 kts | 298° |
| 2026-05-06 10:19 | 20.15369 | 101.72003 | 35932 ft | 481 kts | 298° |
| 2026-05-06 10:20 | 20.18678 | 101.65813 | 35934 ft | 481 kts | 298° |
| 2026-05-06 10:20 | 20.21984 | 101.59622 | 35942 ft | 481 kts | 298° |
| 2026-05-06 10:21 | 20.25290 | 101.53423 | 35945 ft | 481 kts | 298° |
| 2026-05-06 10:21 | 20.28592 | 101.47228 | 35946 ft | 481 kts | 298° |
| 2026-05-06 10:22 | 20.31894 | 101.41025 | 35951 ft | 481 kts | 298° |
| 2026-05-06 10:22 | 20.35188 | 101.34831 | 35951 ft | 481 kts | 298° |
| 2026-05-06 10:23 | 20.38464 | 101.28661 | 35959 ft | 481 kts | 298° |
| 2026-05-06 10:23 | 20.41763 | 101.22444 | 35963 ft | 481 kts | 298° |
| 2026-05-06 10:24 | 20.45053 | 101.16238 | 35966 ft | 481 kts | 298° |
| 2026-05-06 10:24 | 20.48338 | 101.10032 | 35960 ft | 480 kts | 298° |
| 2026-05-06 10:25 | 20.51616 | 101.03833 | 35962 ft | 479 kts | 298° |
| 2026-05-06 10:25 | 20.54888 | 100.97639 | 35967 ft | 479 kts | 298° |
| 2026-05-06 10:26 | 20.58145 | 100.91465 | 35967 ft | 479 kts | 298° |
| 2026-05-06 10:26 | 20.61414 | 100.85263 | 35962 ft | 479 kts | 298° |
| 2026-05-06 10:27 | 20.64681 | 100.79057 | 35962 ft | 479 kts | 298° |
| 2026-05-06 10:27 | 20.67944 | 100.72852 | 35965 ft | 479 kts | 298° |
| 2026-05-06 10:28 | 20.71211 | 100.66632 | 35950 ft | 479 kts | 298° |
| 2026-05-06 10:28 | 20.74471 | 100.60420 | 35950 ft | 479 kts | 298° |
| 2026-05-06 10:29 | 20.77730 | 100.54204 | 35943 ft | 479 kts | 298° |
| 2026-05-06 10:29 | 20.80925 | 100.47964 | 35942 ft | 477 kts | 294° |
| 2026-05-06 10:30 | 20.83140 | 100.41351 | 35941 ft | 475 kts | 286° |
| 2026-05-06 10:30 | 20.85004 | 100.34593 | 35940 ft | 474 kts | 285° |
| 2026-05-06 10:31 | 20.86816 | 100.27814 | 35940 ft | 474 kts | 285° |
| 2026-05-06 10:31 | 20.88633 | 100.21043 | 35942 ft | 473 kts | 285° |
| 2026-05-06 10:32 | 20.90460 | 100.14280 | 35943 ft | 473 kts | 285° |
| 2026-05-06 10:32 | 20.92287 | 100.07515 | 35945 ft | 473 kts | 285° |
| 2026-05-06 10:33 | 20.94113 | 100.00745 | 35944 ft | 473 kts | 285° |
| 2026-05-06 10:33 | 20.95924 | 99.94018 | 35947 ft | 473 kts | 285° |
| 2026-05-06 10:34 | 20.97744 | 99.87243 | 35946 ft | 473 kts | 285° |
| 2026-05-06 10:34 | 20.99558 | 99.80482 | 35949 ft | 473 kts | 285° |
| 2026-05-06 10:35 | 21.01367 | 99.73725 | 35948 ft | 472 kts | 285° |
| 2026-05-06 10:35 | 21.03174 | 99.66965 | 35953 ft | 472 kts | 285° |
| 2026-05-06 10:36 | 21.04976 | 99.60211 | 35953 ft | 472 kts | 284° |
| 2026-05-06 10:36 | 21.06776 | 99.53455 | 35955 ft | 472 kts | 284° |
| 2026-05-06 10:37 | 21.08574 | 99.46690 | 35954 ft | 472 kts | 284° |
| 2026-05-06 10:37 | 21.10371 | 99.39921 | 35952 ft | 472 kts | 284° |
| 2026-05-06 10:38 | 21.12153 | 99.33196 | 35951 ft | 472 kts | 284° |
| 2026-05-06 10:38 | 21.13946 | 99.26423 | 35953 ft | 472 kts | 284° |
| 2026-05-06 10:39 | 21.15735 | 99.19644 | 35939 ft | 473 kts | 284° |
| 2026-05-06 10:39 | 21.17521 | 99.12868 | 35940 ft | 472 kts | 284° |
| 2026-05-06 10:40 | 21.19307 | 99.06082 | 35927 ft | 473 kts | 284° |
| 2026-05-06 10:40 | 21.21090 | 98.99294 | 35926 ft | 473 kts | 284° |
| 2026-05-06 10:41 | 21.22873 | 98.92497 | 35916 ft | 473 kts | 284° |
| 2026-05-06 10:41 | 21.24653 | 98.85698 | 35918 ft | 473 kts | 284° |
| 2026-05-06 10:42 | 21.26424 | 98.78916 | 35906 ft | 473 kts | 284° |
| 2026-05-06 10:42 | 21.28197 | 98.72120 | 35907 ft | 473 kts | 284° |
| 2026-05-06 10:43 | 21.29965 | 98.65332 | 35895 ft | 471 kts | 284° |
| 2026-05-06 10:44 | 21.32590 | 98.55226 | 35917 ft | 470 kts | 284° |
| 2026-05-06 10:44 | 21.34343 | 98.48465 | 35893 ft | 470 kts | 284° |
| 2026-05-06 10:45 | 21.36093 | 98.41701 | 35896 ft | 470 kts | 284° |
| 2026-05-06 10:45 | 21.37839 | 98.34940 | 35910 ft | 470 kts | 284° |
| 2026-05-06 10:46 | 21.39582 | 98.28178 | 35884 ft | 470 kts | 284° |
| 2026-05-06 10:46 | 21.41325 | 98.21405 | 35904 ft | 471 kts | 284° |
| 2026-05-06 10:47 | 21.43057 | 98.14668 | 35905 ft | 471 kts | 284° |
| 2026-05-06 10:47 | 21.44794 | 98.07893 | 35906 ft | 471 kts | 284° |
| 2026-05-06 10:48 | 21.46529 | 98.01114 | 35906 ft | 470 kts | 284° |
| 2026-05-06 10:48 | 21.48261 | 97.94337 | 35922 ft | 470 kts | 284° |
| 2026-05-06 10:49 | 21.49989 | 97.87560 | 35930 ft | 470 kts | 284° |
| 2026-05-06 10:49 | 21.51714 | 97.80785 | 35914 ft | 470 kts | 284° |
| 2026-05-06 10:50 | 21.53425 | 97.74053 | 35918 ft | 470 kts | 284° |
| 2026-05-06 10:50 | 21.55144 | 97.67276 | 35929 ft | 470 kts | 284° |
| 2026-05-06 10:51 | 21.56861 | 97.60497 | 35927 ft | 470 kts | 284° |
| 2026-05-06 10:51 | 21.58574 | 97.53718 | 35912 ft | 470 kts | 284° |
| 2026-05-06 10:52 | 21.60287 | 97.46927 | 35926 ft | 470 kts | 284° |
| 2026-05-06 10:52 | 21.61994 | 97.40147 | 35910 ft | 471 kts | 284° |
| 2026-05-06 10:53 | 21.63703 | 97.33351 | 35915 ft | 471 kts | 284° |
| 2026-05-06 10:53 | 21.65408 | 97.26554 | 35910 ft | 470 kts | 284° |
| 2026-05-06 10:54 | 21.67107 | 97.19768 | 35904 ft | 470 kts | 284° |
| 2026-05-06 10:54 | 21.68793 | 97.13023 | 35900 ft | 470 kts | 284° |
| 2026-05-06 10:55 | 21.70484 | 97.06244 | 35901 ft | 469 kts | 284° |
| 2026-05-06 10:55 | 21.72184 | 96.99419 | 35900 ft | 469 kts | 284° |
| 2026-05-06 10:56 | 21.73860 | 96.92674 | 35896 ft | 469 kts | 284° |
| 2026-05-06 10:56 | 21.75270 | 96.86991 | 35897 ft | 469 kts | 284° |
| 2026-05-06 10:57 | 21.77222 | 96.79110 | 35903 ft | 469 kts | 284° |
| 2026-05-06 10:57 | 21.78898 | 96.72332 | 35900 ft | 469 kts | 284° |
| 2026-05-06 10:58 | 21.80289 | 96.66692 | 35900 ft | 469 kts | 284° |
| 2026-05-06 10:58 | 21.81959 | 96.59912 | 35906 ft | 469 kts | 284° |
| 2026-05-06 10:59 | 21.83630 | 96.53116 | 35889 ft | 469 kts | 284° |
| 2026-05-06 10:59 | 21.85295 | 96.46332 | 35901 ft | 469 kts | 284° |
| 2026-05-06 11:00 | 21.86954 | 96.39558 | 35890 ft | 468 kts | 283° |
| 2026-05-06 11:00 | 21.88609 | 96.32786 | 35877 ft | 467 kts | 283° |
| 2026-05-06 11:01 | 21.90258 | 96.26025 | 35877 ft | 467 kts | 283° |
| 2026-05-06 11:01 | 21.91906 | 96.19260 | 35855 ft | 467 kts | 283° |
| 2026-05-06 11:02 | 21.93381 | 96.12458 | 35855 ft | 466 kts | 277° |
| 2026-05-06 11:02 | 21.94114 | 96.05522 | 35842 ft | 465 kts | 275° |
| 2026-05-06 11:03 | 21.94712 | 95.98643 | 35842 ft | 464 kts | 275° |
| 2026-05-06 11:03 | 21.95294 | 95.91730 | 35835 ft | 463 kts | 275° |
| 2026-05-06 11:04 | 21.95884 | 95.84797 | 35832 ft | 463 kts | 275° |
| 2026-05-06 11:04 | 21.96479 | 95.77875 | 35833 ft | 463 kts | 275° |
| 2026-05-06 11:05 | 21.97071 | 95.70963 | 35836 ft | 463 kts | 275° |
| 2026-05-06 11:05 | 21.97660 | 95.64054 | 35832 ft | 463 kts | 274° |
| 2026-05-06 11:06 | 21.98242 | 95.57188 | 35830 ft | 463 kts | 274° |
| 2026-05-06 11:06 | 21.98824 | 95.50280 | 35832 ft | 463 kts | 274° |
| 2026-05-06 11:07 | 21.99403 | 95.43371 | 35833 ft | 463 kts | 274° |
| 2026-05-06 11:07 | 21.99980 | 95.36458 | 35833 ft | 463 kts | 274° |
| 2026-05-06 11:08 | 22.00555 | 95.29540 | 35833 ft | 463 kts | 274° |
| 2026-05-06 11:08 | 22.01125 | 95.22636 | 35833 ft | 463 kts | 274° |
| 2026-05-06 11:09 | 22.01693 | 95.15721 | 35829 ft | 463 kts | 274° |
| 2026-05-06 11:09 | 22.02259 | 95.08801 | 35829 ft | 463 kts | 274° |
| 2026-05-06 11:10 | 22.02821 | 95.01885 | 35839 ft | 463 kts | 274° |
| 2026-05-06 11:10 | 22.03381 | 94.94962 | 35842 ft | 463 kts | 274° |
| 2026-05-06 11:11 | 22.03937 | 94.88055 | 35834 ft | 461 kts | 274° |
| 2026-05-06 11:11 | 22.04489 | 94.81169 | 35847 ft | 461 kts | 274° |
| 2026-05-06 11:12 | 22.05037 | 94.74278 | 35843 ft | 461 kts | 274° |
| 2026-05-06 11:12 | 22.05582 | 94.67392 | 35861 ft | 461 kts | 274° |
| 2026-05-06 11:13 | 22.06122 | 94.60541 | 35862 ft | 461 kts | 274° |
| 2026-05-06 11:13 | 22.06661 | 94.53653 | 35868 ft | 462 kts | 274° |
| 2026-05-06 11:14 | 22.07200 | 94.46738 | 35866 ft | 463 kts | 274° |
| 2026-05-06 11:14 | 22.07736 | 94.39815 | 35879 ft | 464 kts | 274° |
| 2026-05-06 11:15 | 22.08270 | 94.32896 | 35870 ft | 463 kts | 274° |
| 2026-05-06 11:15 | 22.08801 | 94.25969 | 35875 ft | 463 kts | 274° |
| 2026-05-06 11:16 | 22.09329 | 94.19040 | 35886 ft | 463 kts | 274° |
| 2026-05-06 11:16 | 22.09851 | 94.12162 | 35877 ft | 463 kts | 274° |
| 2026-05-06 11:17 | 22.10373 | 94.05234 | 35893 ft | 463 kts | 274° |
| 2026-05-06 11:17 | 22.10892 | 93.98304 | 35889 ft | 463 kts | 274° |
| 2026-05-06 11:18 | 22.11408 | 93.91380 | 35920 ft | 463 kts | 274° |
| 2026-05-06 11:18 | 22.11922 | 93.84449 | 35919 ft | 463 kts | 274° |
| 2026-05-06 11:19 | 22.12431 | 93.77543 | 35957 ft | 463 kts | 273° |
| 2026-05-06 11:19 | 22.12935 | 93.70668 | 35955 ft | 462 kts | 273° |
| 2026-05-06 11:20 | 22.13438 | 93.63755 | 35958 ft | 462 kts | 273° |
| 2026-05-06 11:20 | 22.13939 | 93.56843 | 35952 ft | 462 kts | 273° |
| 2026-05-06 11:21 | 22.14436 | 93.49932 | 35984 ft | 462 kts | 273° |
| 2026-05-06 11:21 | 22.14929 | 93.43015 | 35983 ft | 462 kts | 273° |
| 2026-05-06 11:22 | 22.15421 | 93.36101 | 35983 ft | 462 kts | 273° |
| 2026-05-06 11:22 | 22.15910 | 93.29187 | 35974 ft | 462 kts | 273° |
| 2026-05-06 11:23 | 22.16397 | 93.22259 | 35989 ft | 462 kts | 273° |
| 2026-05-06 11:23 | 22.16878 | 93.15349 | 35965 ft | 462 kts | 273° |
| 2026-05-06 11:24 | 22.17356 | 93.08478 | 35966 ft | 463 kts | 273° |
| 2026-05-06 11:24 | 22.17834 | 93.01553 | 35943 ft | 461 kts | 273° |
| 2026-05-06 11:25 | 22.18307 | 92.94661 | 35945 ft | 460 kts | 273° |
| 2026-05-06 11:25 | 22.18775 | 92.87789 | 35925 ft | 460 kts | 273° |
| 2026-05-06 11:26 | 22.19240 | 92.80909 | 35924 ft | 459 kts | 273° |
| 2026-05-06 11:26 | 22.19703 | 92.74023 | 35908 ft | 460 kts | 273° |
| 2026-05-06 11:27 | 22.20163 | 92.67148 | 35916 ft | 460 kts | 272° |
| 2026-05-06 11:27 | 22.20612 | 92.60270 | 35906 ft | 458 kts | 272° |
| 2026-05-06 11:28 | 22.21027 | 92.53409 | 35903 ft | 458 kts | 272° |
| 2026-05-06 11:28 | 22.21437 | 92.46552 | 35902 ft | 458 kts | 272° |
| 2026-05-06 11:29 | 22.21848 | 92.39696 | 35897 ft | 458 kts | 272° |
| 2026-05-06 11:29 | 22.22257 | 92.32883 | 35895 ft | 458 kts | 272° |
| 2026-05-06 11:30 | 22.22669 | 92.26017 | 35894 ft | 457 kts | 272° |
| 2026-05-06 11:30 | 22.23151 | 92.19170 | 35892 ft | 456 kts | 273° |
| 2026-05-06 11:31 | 22.23663 | 92.12354 | 35887 ft | 456 kts | 273° |
| 2026-05-06 11:31 | 22.24164 | 92.05529 | 35888 ft | 456 kts | 272° |
| 2026-05-06 11:32 | 22.24650 | 91.98736 | 35887 ft | 456 kts | 272° |
| 2026-05-06 11:32 | 22.25134 | 91.91910 | 35888 ft | 456 kts | 272° |
| 2026-05-06 11:33 | 22.25616 | 91.85079 | 35874 ft | 456 kts | 272° |
| 2026-05-06 11:33 | 22.26175 | 91.78257 | 35874 ft | 456 kts | 275° |
| 2026-05-06 11:34 | 22.27003 | 91.71460 | 35875 ft | 457 kts | 275° |
| 2026-05-06 11:34 | 22.27854 | 91.64671 | 35878 ft | 456 kts | 275° |
| 2026-05-06 11:35 | 22.28660 | 91.57872 | 35879 ft | 456 kts | 275° |
| 2026-05-06 11:35 | 22.29441 | 91.51072 | 35887 ft | 456 kts | 275° |
| 2026-05-06 11:36 | 22.30216 | 91.44263 | 35891 ft | 457 kts | 275° |
| 2026-05-06 11:36 | 22.30990 | 91.37449 | 35888 ft | 457 kts | 275° |
| 2026-05-06 11:37 | 22.31810 | 91.30691 | 35887 ft | 457 kts | 275° |
| 2026-05-06 11:37 | 22.32668 | 91.23890 | 35882 ft | 457 kts | 275° |
| 2026-05-06 11:38 | 22.33518 | 91.17083 | 35882 ft | 457 kts | 275° |
| 2026-05-06 11:38 | 22.34357 | 91.10284 | 35880 ft | 457 kts | 275° |
| 2026-05-06 11:39 | 22.35190 | 91.03481 | 35885 ft | 457 kts | 275° |
| 2026-05-06 11:39 | 22.36022 | 90.96669 | 35885 ft | 457 kts | 275° |
| 2026-05-06 11:40 | 22.36849 | 90.89870 | 35885 ft | 457 kts | 275° |
| 2026-05-06 11:40 | 22.37536 | 90.84207 | 35885 ft | 457 kts | 275° |
| 2026-05-06 11:41 | 22.38492 | 90.76303 | 35894 ft | 457 kts | 275° |
| 2026-05-06 11:41 | 22.39311 | 90.69502 | 35888 ft | 456 kts | 275° |
| 2026-05-06 11:42 | 22.40125 | 90.62715 | 35888 ft | 456 kts | 275° |
| 2026-05-06 11:42 | 22.40938 | 90.55918 | 35885 ft | 456 kts | 275° |
| 2026-05-06 11:43 | 22.41747 | 90.49119 | 35884 ft | 456 kts | 275° |
| 2026-05-06 11:43 | 22.42417 | 90.43479 | 35880 ft | 456 kts | 275° |
| 2026-05-06 11:44 | 22.43623 | 90.33280 | 35883 ft | 455 kts | 275° |
| 2026-05-06 11:44 | 22.44423 | 90.26483 | 35883 ft | 455 kts | 275° |
| 2026-05-06 11:45 | 22.45218 | 90.19699 | 35879 ft | 455 kts | 275° |
| 2026-05-06 11:45 | 22.46012 | 90.12905 | 35885 ft | 455 kts | 275° |
| 2026-05-06 11:46 | 22.46800 | 90.06132 | 35877 ft | 454 kts | 275° |
| 2026-05-06 11:46 | 22.47585 | 89.99364 | 35877 ft | 454 kts | 275° |
| 2026-05-06 11:47 | 22.48362 | 89.92631 | 35872 ft | 455 kts | 275° |
| 2026-05-06 11:47 | 22.49145 | 89.85835 | 35870 ft | 455 kts | 275° |
| 2026-05-06 11:48 | 22.49922 | 89.79058 | 35874 ft | 455 kts | 275° |
| 2026-05-06 11:48 | 22.50699 | 89.72253 | 35872 ft | 455 kts | 275° |
| 2026-05-06 11:49 | 22.51472 | 89.65468 | 35875 ft | 455 kts | 275° |
| 2026-05-06 11:49 | 22.52241 | 89.58678 | 35871 ft | 455 kts | 275° |
| 2026-05-06 11:50 | 22.53009 | 89.51883 | 35869 ft | 455 kts | 275° |
| 2026-05-06 11:50 | 22.53772 | 89.45095 | 35868 ft | 455 kts | 275° |
| 2026-05-06 11:51 | 22.54529 | 89.38343 | 35866 ft | 455 kts | 275° |
| 2026-05-06 11:51 | 22.55287 | 89.31552 | 35867 ft | 455 kts | 275° |
| 2026-05-06 11:52 | 22.56043 | 89.24758 | 35869 ft | 455 kts | 275° |
| 2026-05-06 11:52 | 22.56795 | 89.17966 | 35864 ft | 455 kts | 275° |
| 2026-05-06 11:53 | 22.57546 | 89.11165 | 35864 ft | 455 kts | 275° |
| 2026-05-06 11:53 | 22.58295 | 89.04352 | 35856 ft | 455 kts | 275° |
| 2026-05-06 11:54 | 22.59038 | 88.97563 | 35863 ft | 455 kts | 274° |
| 2026-05-06 11:54 | 22.59829 | 88.90766 | 35858 ft | 456 kts | 277° |
| 2026-05-06 11:55 | 22.60967 | 88.84046 | 35855 ft | 457 kts | 278° |
| 2026-05-06 11:55 | 22.62183 | 88.77300 | 35861 ft | 457 kts | 278° |
| 2026-05-06 11:56 | 22.63347 | 88.70543 | 35864 ft | 457 kts | 278° |
| 2026-05-06 11:56 | 22.64473 | 88.63782 | 35871 ft | 457 kts | 278° |
| 2026-05-06 11:57 | 22.65590 | 88.57005 | 35870 ft | 457 kts | 278° |
| 2026-05-06 11:57 | 22.66704 | 88.50236 | 35876 ft | 457 kts | 278° |
| 2026-05-06 11:58 | 22.67650 | 88.43440 | 35874 ft | 455 kts | 273° |
| 2026-05-06 11:58 | 22.68167 | 88.36612 | 35874 ft | 454 kts | 272° |
| 2026-05-06 11:59 | 22.68617 | 88.29796 | 35866 ft | 454 kts | 272° |
| 2026-05-06 11:59 | 22.69059 | 88.22964 | 35859 ft | 454 kts | 272° |
| 2026-05-06 12:00 | 22.69505 | 88.16134 | 35863 ft | 454 kts | 272° |
| 2026-05-06 12:00 | 22.69948 | 88.09360 | 35853 ft | 454 kts | 272° |
| 2026-05-06 12:01 | 22.70395 | 88.02491 | 35855 ft | 455 kts | 272° |
| 2026-05-06 12:01 | 22.70834 | 87.95704 | 35855 ft | 455 kts | 272° |
| 2026-05-06 12:02 | 22.71273 | 87.88867 | 35853 ft | 455 kts | 272° |
| 2026-05-06 12:02 | 22.71709 | 87.82039 | 35860 ft | 455 kts | 272° |
| 2026-05-06 12:03 | 22.72142 | 87.75202 | 35858 ft | 455 kts | 272° |
| 2026-05-06 12:03 | 22.72572 | 87.68357 | 35865 ft | 454 kts | 272° |
| 2026-05-06 12:04 | 22.72999 | 87.61533 | 35868 ft | 454 kts | 272° |
| 2026-05-06 12:04 | 22.73419 | 87.54765 | 35876 ft | 454 kts | 272° |
| 2026-05-06 12:05 | 22.73840 | 87.47940 | 35875 ft | 454 kts | 272° |
| 2026-05-06 12:05 | 22.74257 | 87.41120 | 35877 ft | 453 kts | 272° |
| 2026-05-06 12:06 | 22.74672 | 87.34298 | 35880 ft | 453 kts | 272° |
| 2026-05-06 12:06 | 22.75084 | 87.27474 | 35878 ft | 454 kts | 272° |
| 2026-05-06 12:07 | 22.75493 | 87.20642 | 35883 ft | 454 kts | 272° |
| 2026-05-06 12:07 | 22.75899 | 87.13821 | 35884 ft | 453 kts | 272° |
| 2026-05-06 12:08 | 22.76301 | 87.07021 | 35894 ft | 452 kts | 272° |
| 2026-05-06 12:08 | 22.76700 | 87.00219 | 35889 ft | 452 kts | 272° |
| 2026-05-06 12:09 | 22.77095 | 86.93425 | 35900 ft | 452 kts | 272° |
| 2026-05-06 12:09 | 22.77485 | 86.86671 | 35895 ft | 451 kts | 272° |
| 2026-05-06 12:10 | 22.77875 | 86.79878 | 35895 ft | 451 kts | 272° |
| 2026-05-06 12:10 | 22.78261 | 86.73088 | 35905 ft | 451 kts | 272° |
| 2026-05-06 12:11 | 22.78645 | 86.66299 | 35900 ft | 451 kts | 272° |
| 2026-05-06 12:11 | 22.79025 | 86.59511 | 35909 ft | 451 kts | 272° |
| 2026-05-06 12:12 | 22.79404 | 86.52715 | 35913 ft | 451 kts | 272° |
| 2026-05-06 12:12 | 22.79779 | 86.45919 | 35910 ft | 451 kts | 272° |
| 2026-05-06 12:13 | 22.80150 | 86.39148 | 35914 ft | 451 kts | 272° |
| 2026-05-06 12:13 | 22.80517 | 86.32400 | 35920 ft | 451 kts | 272° |
| 2026-05-06 12:14 | 22.80883 | 86.25616 | 35922 ft | 451 kts | 272° |
| 2026-05-06 12:14 | 22.81245 | 86.18845 | 35848 ft | 450 kts | 272° |
| 2026-05-06 12:15 | 22.81683 | 86.12062 | 35847 ft | 450 kts | 273° |
| 2026-05-06 12:15 | 22.82277 | 86.05298 | 35851 ft | 451 kts | 274° |
| 2026-05-06 12:16 | 22.82874 | 85.98520 | 35870 ft | 450 kts | 274° |
| 2026-05-06 12:16 | 22.83437 | 85.91793 | 35891 ft | 450 kts | 273° |
| 2026-05-06 12:17 | 22.83987 | 85.85035 | 35912 ft | 450 kts | 273° |
| 2026-05-06 12:17 | 22.84533 | 85.78263 | 35930 ft | 450 kts | 273° |
| 2026-05-06 12:18 | 22.85078 | 85.71490 | 35941 ft | 450 kts | 273° |
| 2026-05-06 12:18 | 22.85620 | 85.64723 | 35940 ft | 450 kts | 273° |
| 2026-05-06 12:19 | 22.86157 | 85.57991 | 35942 ft | 450 kts | 273° |
| 2026-05-06 12:19 | 22.86694 | 85.51227 | 35953 ft | 450 kts | 273° |
| 2026-05-06 12:20 | 22.87227 | 85.44457 | 35952 ft | 450 kts | 273° |
| 2026-05-06 12:20 | 22.87758 | 85.37681 | 35962 ft | 452 kts | 273° |
| 2026-05-06 12:21 | 22.88290 | 85.30866 | 35959 ft | 453 kts | 273° |
| 2026-05-06 12:21 | 22.88818 | 85.24066 | 35961 ft | 453 kts | 273° |
| 2026-05-06 12:22 | 22.89342 | 85.17268 | 35965 ft | 453 kts | 273° |
| 2026-05-06 12:22 | 22.89862 | 85.10511 | 35959 ft | 453 kts | 273° |
| 2026-05-06 12:23 | 22.90391 | 85.03692 | 35986 ft | 453 kts | 273° |
| 2026-05-06 12:23 | 22.90915 | 84.96903 | 35975 ft | 451 kts | 273° |
| 2026-05-06 12:24 | 22.91436 | 84.90113 | 35976 ft | 451 kts | 273° |
| 2026-05-06 12:24 | 22.91953 | 84.83317 | 35976 ft | 451 kts | 273° |
| 2026-05-06 12:25 | 22.92468 | 84.76526 | 35977 ft | 451 kts | 273° |
| 2026-05-06 12:25 | 22.92974 | 84.69792 | 35978 ft | 451 kts | 273° |
| 2026-05-06 12:26 | 22.93484 | 84.62989 | 35980 ft | 451 kts | 273° |
| 2026-05-06 12:26 | 22.93989 | 84.56200 | 35977 ft | 451 kts | 273° |
| 2026-05-06 12:27 | 22.94491 | 84.49417 | 35973 ft | 451 kts | 273° |
| 2026-05-06 12:27 | 22.94991 | 84.42623 | 35973 ft | 451 kts | 273° |
| 2026-05-06 12:28 | 22.95488 | 84.35832 | 35967 ft | 451 kts | 273° |
| 2026-05-06 12:28 | 22.95979 | 84.29079 | 35967 ft | 452 kts | 273° |
| 2026-05-06 12:29 | 22.96470 | 84.22281 | 35969 ft | 453 kts | 273° |
| 2026-05-06 12:29 | 22.96960 | 84.15468 | 35950 ft | 453 kts | 273° |
| 2026-05-06 12:30 | 22.97359 | 84.09756 | 35955 ft | 453 kts | 272° |
| 2026-05-06 12:30 | 22.97785 | 84.01832 | 35946 ft | 453 kts | 272° |
| 2026-05-06 12:31 | 22.98126 | 83.95008 | 35946 ft | 453 kts | 272° |
| 2026-05-06 12:31 | 22.98421 | 83.89319 | 35933 ft | 453 kts | 272° |
| 2026-05-06 12:32 | 22.98784 | 83.82506 | 35952 ft | 452 kts | 272° |
| 2026-05-06 12:32 | 22.99146 | 83.75688 | 35922 ft | 451 kts | 272° |
| 2026-05-06 12:33 | 22.99501 | 83.68905 | 35925 ft | 451 kts | 272° |
| 2026-05-06 12:33 | 22.99855 | 83.62108 | 35923 ft | 450 kts | 272° |
| 2026-05-06 12:34 | 23.00202 | 83.55317 | 35911 ft | 451 kts | 272° |
| 2026-05-06 12:34 | 23.00548 | 83.48580 | 35914 ft | 449 kts | 272° |
| 2026-05-06 12:35 | 23.00891 | 83.41832 | 35897 ft | 447 kts | 272° |
| 2026-05-06 12:35 | 23.01230 | 83.35094 | 35894 ft | 447 kts | 272° |
| 2026-05-06 12:36 | 23.01566 | 83.28360 | 35880 ft | 447 kts | 272° |
| 2026-05-06 12:36 | 23.01899 | 83.21626 | 35883 ft | 447 kts | 272° |
| 2026-05-06 12:37 | 23.02229 | 83.14890 | 35872 ft | 447 kts | 272° |
| 2026-05-06 12:37 | 23.02556 | 83.08145 | 35879 ft | 447 kts | 272° |
| 2026-05-06 12:38 | 23.02879 | 83.01439 | 35875 ft | 447 kts | 272° |
| 2026-05-06 12:38 | 23.03187 | 82.94991 | 35874 ft | 448 kts | 272° |
| 2026-05-06 12:39 | 23.03507 | 82.88238 | 35874 ft | 448 kts | 272° |
| 2026-05-06 12:39 | 23.03824 | 82.81483 | 35868 ft | 448 kts | 272° |
| 2026-05-06 12:40 | 23.04138 | 82.74728 | 35872 ft | 447 kts | 272° |
| 2026-05-06 12:40 | 23.04448 | 82.67985 | 35867 ft | 447 kts | 272° |
| 2026-05-06 12:41 | 23.04753 | 82.61286 | 35864 ft | 446 kts | 272° |
| 2026-05-06 12:41 | 23.05058 | 82.54554 | 35872 ft | 446 kts | 272° |
| 2026-05-06 12:42 | 23.05359 | 82.47822 | 35871 ft | 446 kts | 272° |
| 2026-05-06 12:42 | 23.05658 | 82.41090 | 35870 ft | 446 kts | 272° |
| 2026-05-06 12:43 | 23.05952 | 82.34381 | 35767 ft | 444 kts | 272° |
| 2026-05-06 12:43 | 23.06244 | 82.27671 | 35765 ft | 445 kts | 272° |
| 2026-05-06 12:44 | 23.06534 | 82.20945 | 35765 ft | 446 kts | 272° |
| 2026-05-06 12:44 | 23.06828 | 82.14222 | 35765 ft | 446 kts | 272° |
| 2026-05-06 12:45 | 23.07236 | 82.07493 | 35768 ft | 446 kts | 273° |
| 2026-05-06 12:46 | 23.07896 | 81.97461 | 35769 ft | 446 kts | 273° |
| 2026-05-06 12:46 | 23.08315 | 81.90737 | 35768 ft | 446 kts | 273° |
| 2026-05-06 12:47 | 23.08723 | 81.84016 | 35767 ft | 446 kts | 273° |
| 2026-05-06 12:47 | 23.09127 | 81.77289 | 35769 ft | 446 kts | 273° |
| 2026-05-06 12:48 | 23.09528 | 81.70572 | 35768 ft | 446 kts | 273° |
| 2026-05-06 12:48 | 23.09924 | 81.63891 | 35769 ft | 446 kts | 273° |
| 2026-05-06 12:49 | 23.10320 | 81.57172 | 35773 ft | 446 kts | 273° |
| 2026-05-06 12:49 | 23.10713 | 81.50455 | 35774 ft | 446 kts | 273° |
| 2026-05-06 12:50 | 23.11104 | 81.43733 | 35773 ft | 446 kts | 273° |
| 2026-05-06 12:50 | 23.11492 | 81.37010 | 35773 ft | 446 kts | 273° |
| 2026-05-06 12:51 | 23.11877 | 81.30286 | 35783 ft | 445 kts | 272° |
| 2026-05-06 12:51 | 23.12258 | 81.23574 | 35774 ft | 445 kts | 273° |
| 2026-05-06 12:52 | 23.12633 | 81.16917 | 35778 ft | 444 kts | 273° |
| 2026-05-06 12:52 | 23.13010 | 81.10210 | 35781 ft | 444 kts | 273° |
| 2026-05-06 12:53 | 23.13382 | 81.03509 | 35792 ft | 445 kts | 273° |
| 2026-05-06 12:53 | 23.13752 | 80.96804 | 35791 ft | 444 kts | 273° |
| 2026-05-06 12:54 | 23.14118 | 80.90098 | 35801 ft | 444 kts | 273° |
| 2026-05-06 12:54 | 23.14481 | 80.83405 | 35798 ft | 444 kts | 273° |
| 2026-05-06 12:55 | 23.14841 | 80.76710 | 35798 ft | 443 kts | 273° |
| 2026-05-06 12:55 | 23.15205 | 80.70022 | 35803 ft | 443 kts | 273° |
| 2026-05-06 12:56 | 23.15571 | 80.63365 | 35800 ft | 443 kts | 273° |
| 2026-05-06 12:56 | 23.15934 | 80.56688 | 35810 ft | 442 kts | 273° |
| 2026-05-06 12:57 | 23.16293 | 80.50017 | 35808 ft | 442 kts | 273° |
| 2026-05-06 12:57 | 23.16648 | 80.43354 | 35813 ft | 442 kts | 273° |
| 2026-05-06 12:58 | 23.17001 | 80.36681 | 35812 ft | 442 kts | 273° |
| 2026-05-06 12:58 | 23.17352 | 80.30012 | 35809 ft | 442 kts | 273° |
| 2026-05-06 12:59 | 23.17700 | 80.23345 | 35807 ft | 442 kts | 273° |
| 2026-05-06 12:59 | 23.18044 | 80.16677 | 35802 ft | 442 kts | 273° |
| 2026-05-06 13:00 | 23.18383 | 80.10047 | 35800 ft | 442 kts | 272° |
| 2026-05-06 13:00 | 23.18721 | 80.03362 | 35802 ft | 442 kts | 272° |
| 2026-05-06 13:01 | 23.19015 | 79.96684 | 35803 ft | 442 kts | 272° |
| 2026-05-06 13:01 | 23.19295 | 79.90010 | 35803 ft | 442 kts | 272° |
| 2026-05-06 13:02 | 23.19579 | 79.83329 | 35805 ft | 442 kts | 272° |
| 2026-05-06 13:02 | 23.19864 | 79.76644 | 35805 ft | 443 kts | 272° |
| 2026-05-06 13:03 | 23.20147 | 79.69957 | 35809 ft | 443 kts | 272° |
| 2026-05-06 13:03 | 23.20428 | 79.63270 | 35809 ft | 443 kts | 272° |
| 2026-05-06 13:04 | 23.20704 | 79.56622 | 35806 ft | 443 kts | 272° |
| 2026-05-06 13:04 | 23.20894 | 79.49907 | 35807 ft | 443 kts | 271° |
| 2026-05-06 13:05 | 23.20981 | 79.43214 | 35807 ft | 443 kts | 271° |
| 2026-05-06 13:05 | 23.21074 | 79.36513 | 35804 ft | 444 kts | 271° |
| 2026-05-06 13:06 | 23.21185 | 79.29801 | 35805 ft | 444 kts | 271° |
| 2026-05-06 13:06 | 23.21300 | 79.23093 | 35804 ft | 444 kts | 271° |
| 2026-05-06 13:07 | 23.21414 | 79.16386 | 35809 ft | 444 kts | 271° |
| 2026-05-06 13:07 | 23.21524 | 79.09715 | 35804 ft | 444 kts | 271° |
| 2026-05-06 13:08 | 23.21630 | 79.03006 | 35799 ft | 444 kts | 271° |
| 2026-05-06 13:08 | 23.21733 | 78.96286 | 35806 ft | 444 kts | 271° |
| 2026-05-06 13:09 | 23.21834 | 78.89571 | 35806 ft | 444 kts | 271° |
| 2026-05-06 13:09 | 23.21932 | 78.82838 | 35805 ft | 445 kts | 271° |
| 2026-05-06 13:10 | 23.22027 | 78.76121 | 35807 ft | 444 kts | 271° |
| 2026-05-06 13:10 | 23.22178 | 78.69444 | 35807 ft | 444 kts | 273° |
| 2026-05-06 13:11 | 23.22537 | 78.62730 | 35803 ft | 445 kts | 274° |
| 2026-05-06 13:11 | 23.22912 | 78.56019 | 35805 ft | 445 kts | 273° |
| 2026-05-06 13:12 | 23.23252 | 78.49306 | 35810 ft | 445 kts | 273° |
| 2026-05-06 13:12 | 23.23571 | 78.42589 | 35810 ft | 445 kts | 273° |
| 2026-05-06 13:13 | 23.23884 | 78.35871 | 35802 ft | 445 kts | 273° |
| 2026-05-06 13:13 | 23.24195 | 78.29157 | 35806 ft | 445 kts | 273° |
| 2026-05-06 13:14 | 23.24502 | 78.22479 | 35805 ft | 445 kts | 273° |
| 2026-05-06 13:14 | 23.24809 | 78.15752 | 35806 ft | 445 kts | 273° |
| 2026-05-06 13:15 | 23.25114 | 78.09031 | 35801 ft | 445 kts | 273° |
| 2026-05-06 13:15 | 23.25415 | 78.02308 | 35807 ft | 444 kts | 273° |
| 2026-05-06 13:16 | 23.25712 | 77.95631 | 35800 ft | 445 kts | 273° |
| 2026-05-06 13:16 | 23.26007 | 77.88913 | 35799 ft | 445 kts | 273° |
| 2026-05-06 13:17 | 23.26300 | 77.82194 | 35804 ft | 445 kts | 273° |
| 2026-05-06 13:17 | 23.26541 | 77.76602 | 35803 ft | 445 kts | 273° |
| 2026-05-06 13:18 | 23.26876 | 77.68748 | 35809 ft | 444 kts | 273° |
| 2026-05-06 13:18 | 23.27112 | 77.63171 | 35811 ft | 444 kts | 273° |
| 2026-05-06 13:19 | 23.27393 | 77.56467 | 35816 ft | 444 kts | 273° |
| 2026-05-06 13:19 | 23.27672 | 77.49745 | 35824 ft | 444 kts | 273° |
| 2026-05-06 13:20 | 23.27948 | 77.43025 | 35830 ft | 445 kts | 273° |
| 2026-05-06 13:20 | 23.28221 | 77.36302 | 35831 ft | 445 kts | 273° |
| 2026-05-06 13:21 | 23.28037 | 77.29571 | 35828 ft | 445 kts | 268° |
| 2026-05-06 13:21 | 23.27593 | 77.22888 | 35826 ft | 446 kts | 267° |
| 2026-05-06 13:22 | 23.27103 | 77.16161 | 35826 ft | 446 kts | 267° |
| 2026-05-06 13:22 | 23.26613 | 77.09443 | 35821 ft | 446 kts | 267° |
| 2026-05-06 13:23 | 23.26129 | 77.02725 | 35820 ft | 446 kts | 267° |
| 2026-05-06 13:23 | 23.25643 | 76.95995 | 35815 ft | 446 kts | 267° |
| 2026-05-06 13:24 | 23.25156 | 76.89275 | 35818 ft | 446 kts | 267° |
| 2026-05-06 13:24 | 23.24664 | 76.82547 | 35817 ft | 446 kts | 267° |
| 2026-05-06 13:25 | 23.24170 | 76.75819 | 35823 ft | 446 kts | 267° |
| 2026-05-06 13:25 | 23.23673 | 76.69091 | 35823 ft | 447 kts | 267° |
| 2026-05-06 13:26 | 23.23172 | 76.62357 | 35825 ft | 447 kts | 267° |
| 2026-05-06 13:26 | 23.22669 | 76.55629 | 35824 ft | 447 kts | 267° |
| 2026-05-06 13:27 | 23.22163 | 76.48900 | 35818 ft | 447 kts | 267° |
| 2026-05-06 13:27 | 23.21655 | 76.42186 | 35826 ft | 448 kts | 267° |
| 2026-05-06 13:28 | 23.21141 | 76.35432 | 35824 ft | 448 kts | 267° |
| 2026-05-06 13:28 | 23.20624 | 76.28675 | 35824 ft | 448 kts | 267° |
| 2026-05-06 13:29 | 23.20104 | 76.21912 | 35825 ft | 448 kts | 267° |
| 2026-05-06 13:29 | 23.19581 | 76.15153 | 35824 ft | 448 kts | 267° |
| 2026-05-06 13:30 | 23.19055 | 76.08406 | 35824 ft | 448 kts | 267° |
| 2026-05-06 13:30 | 23.18527 | 76.01649 | 35829 ft | 448 kts | 267° |
| 2026-05-06 13:31 | 23.18145 | 75.94895 | 35827 ft | 447 kts | 271° |
| 2026-05-06 13:31 | 23.18136 | 75.88181 | 35826 ft | 447 kts | 272° |
| 2026-05-06 13:32 | 23.18146 | 75.81416 | 35827 ft | 447 kts | 271° |
| 2026-05-06 13:32 | 23.18093 | 75.74658 | 35824 ft | 448 kts | 271° |
| 2026-05-06 13:33 | 23.18007 | 75.67883 | 35828 ft | 448 kts | 271° |
| 2026-05-06 13:33 | 23.17911 | 75.61103 | 35829 ft | 448 kts | 271° |
| 2026-05-06 13:34 | 23.17815 | 75.54321 | 35828 ft | 449 kts | 271° |
| 2026-05-06 13:34 | 23.17718 | 75.47537 | 35831 ft | 448 kts | 271° |
| 2026-05-06 13:35 | 23.17618 | 75.40761 | 35827 ft | 449 kts | 271° |
| 2026-05-06 13:35 | 23.17516 | 75.33970 | 35827 ft | 450 kts | 271° |
| 2026-05-06 13:36 | 23.17410 | 75.27158 | 35826 ft | 450 kts | 271° |
| 2026-05-06 13:36 | 23.17302 | 75.20400 | 35826 ft | 450 kts | 271° |
| 2026-05-06 13:37 | 23.17190 | 75.13597 | 35829 ft | 450 kts | 271° |
| 2026-05-06 13:37 | 23.17075 | 75.06787 | 35826 ft | 450 kts | 271° |
| 2026-05-06 13:38 | 23.16957 | 74.99970 | 35822 ft | 451 kts | 271° |
| 2026-05-06 13:38 | 23.16836 | 74.93152 | 35821 ft | 451 kts | 271° |
| 2026-05-06 13:39 | 23.16712 | 74.86339 | 35816 ft | 451 kts | 271° |
| 2026-05-06 13:39 | 23.16586 | 74.79520 | 35818 ft | 451 kts | 271° |
| 2026-05-06 13:40 | 23.16456 | 74.72691 | 35814 ft | 451 kts | 271° |
| 2026-05-06 13:40 | 23.16324 | 74.65917 | 35812 ft | 452 kts | 271° |
| 2026-05-06 13:41 | 23.16188 | 74.59098 | 35806 ft | 451 kts | 271° |
| 2026-05-06 13:41 | 23.16050 | 74.52273 | 35806 ft | 451 kts | 271° |
| 2026-05-06 13:42 | 23.15909 | 74.45457 | 35799 ft | 451 kts | 271° |
| 2026-05-06 13:42 | 23.15765 | 74.38627 | 35800 ft | 452 kts | 271° |
| 2026-05-06 13:43 | 23.15610 | 74.31804 | 35796 ft | 452 kts | 270° |
| 2026-05-06 13:43 | 23.15273 | 74.25019 | 35782 ft | 452 kts | 269° |
| 2026-05-06 13:44 | 23.14898 | 74.18192 | 35774 ft | 453 kts | 269° |
| 2026-05-06 13:44 | 23.14595 | 74.11567 | 35775 ft | 453 kts | 270° |
| 2026-05-06 13:45 | 23.14288 | 74.04793 | 35771 ft | 453 kts | 270° |
| 2026-05-06 13:45 | 23.13803 | 73.94589 | 35767 ft | 453 kts | 270° |
| 2026-05-06 13:46 | 23.13469 | 73.87735 | 35776 ft | 453 kts | 270° |
| 2026-05-06 13:46 | 23.13132 | 73.80891 | 35771 ft | 453 kts | 269° |
| 2026-05-06 13:47 | 23.12794 | 73.74057 | 35761 ft | 453 kts | 269° |
| 2026-05-06 13:47 | 23.12451 | 73.67208 | 35749 ft | 453 kts | 269° |
| 2026-05-06 13:48 | 23.12107 | 73.60373 | 35749 ft | 453 kts | 269° |
| 2026-05-06 13:48 | 23.11759 | 73.53539 | 35754 ft | 453 kts | 269° |
| 2026-05-06 13:49 | 23.11409 | 73.46707 | 35744 ft | 453 kts | 269° |
| 2026-05-06 13:49 | 23.11058 | 73.39927 | 35747 ft | 453 kts | 269° |
| 2026-05-06 13:50 | 23.10702 | 73.33092 | 35746 ft | 453 kts | 269° |
| 2026-05-06 13:50 | 23.10343 | 73.26260 | 35745 ft | 453 kts | 269° |
| 2026-05-06 13:51 | 23.09980 | 73.19413 | 35743 ft | 454 kts | 269° |
| 2026-05-06 13:51 | 23.09614 | 73.12575 | 35736 ft | 454 kts | 269° |
| 2026-05-06 13:52 | 23.09246 | 73.05736 | 35731 ft | 454 kts | 269° |
| 2026-05-06 13:52 | 23.08874 | 72.98892 | 35734 ft | 454 kts | 269° |
| 2026-05-06 13:53 | 23.08500 | 72.92054 | 35721 ft | 455 kts | 269° |
| 2026-05-06 13:53 | 23.08121 | 72.85179 | 35723 ft | 456 kts | 269° |
| 2026-05-06 13:54 | 23.07739 | 72.78317 | 35718 ft | 456 kts | 269° |
| 2026-05-06 13:54 | 23.07355 | 72.71475 | 35720 ft | 456 kts | 269° |
| 2026-05-06 13:55 | 23.06964 | 72.64606 | 35717 ft | 456 kts | 269° |
| 2026-05-06 13:55 | 23.06163 | 72.57753 | 35715 ft | 458 kts | 265° |
| 2026-05-06 13:56 | 23.05217 | 72.50899 | 35721 ft | 459 kts | 264° |
| 2026-05-06 13:56 | 23.04245 | 72.44048 | 35720 ft | 459 kts | 264° |
| 2026-05-06 13:57 | 23.03276 | 72.37203 | 35725 ft | 459 kts | 264° |
| 2026-05-06 13:57 | 23.02308 | 72.30353 | 35726 ft | 459 kts | 264° |
| 2026-05-06 13:58 | 23.01340 | 72.23507 | 35722 ft | 459 kts | 264° |
| 2026-05-06 13:58 | 23.00383 | 72.16760 | 35728 ft | 461 kts | 264° |
| 2026-05-06 13:59 | 22.99404 | 72.09883 | 35734 ft | 461 kts | 264° |
| 2026-05-06 13:59 | 22.98421 | 72.03004 | 35732 ft | 461 kts | 264° |
| 2026-05-06 14:00 | 22.97438 | 71.96142 | 35735 ft | 461 kts | 264° |
| 2026-05-06 14:00 | 22.96451 | 71.89271 | 35730 ft | 461 kts | 264° |
| 2026-05-06 14:01 | 22.95466 | 71.82441 | 35737 ft | 461 kts | 264° |
| 2026-05-06 14:01 | 22.94471 | 71.75563 | 35734 ft | 461 kts | 264° |
| 2026-05-06 14:02 | 22.93472 | 71.68675 | 35740 ft | 461 kts | 264° |
| 2026-05-06 14:02 | 22.92473 | 71.61812 | 35739 ft | 461 kts | 264° |
| 2026-05-06 14:03 | 22.91469 | 71.54933 | 35739 ft | 461 kts | 264° |
| 2026-05-06 14:03 | 22.90462 | 71.48056 | 35747 ft | 462 kts | 264° |
| 2026-05-06 14:04 | 22.89451 | 71.41173 | 35746 ft | 462 kts | 264° |
| 2026-05-06 14:04 | 22.88435 | 71.34277 | 35746 ft | 462 kts | 264° |
| 2026-05-06 14:05 | 22.87589 | 71.28557 | 35751 ft | 462 kts | 264° |
| 2026-05-06 14:05 | 22.86403 | 71.20548 | 35751 ft | 463 kts | 264° |
| 2026-05-06 14:06 | 22.85551 | 71.14817 | 35758 ft | 462 kts | 264° |
| 2026-05-06 14:06 | 22.84351 | 71.06773 | 35759 ft | 462 kts | 263° |
| 2026-05-06 14:07 | 22.83493 | 71.01038 | 35769 ft | 463 kts | 263° |
| 2026-05-06 14:07 | 22.82470 | 70.94211 | 35771 ft | 463 kts | 263° |
| 2026-05-06 14:08 | 22.81438 | 70.87348 | 35766 ft | 462 kts | 263° |
| 2026-05-06 14:08 | 22.81045 | 70.80554 | 35769 ft | 460 kts | 274° |
| 2026-05-06 14:09 | 22.81393 | 70.73688 | 35787 ft | 460 kts | 276° |
| 2026-05-06 14:09 | 22.81862 | 70.66770 | 35786 ft | 460 kts | 276° |
| 2026-05-06 14:10 | 22.82323 | 70.59881 | 35783 ft | 460 kts | 276° |
| 2026-05-06 14:10 | 22.82765 | 70.52963 | 35776 ft | 460 kts | 275° |
| 2026-05-06 14:11 | 22.83197 | 70.46035 | 35784 ft | 461 kts | 276° |
| 2026-05-06 14:11 | 22.83622 | 70.39119 | 35780 ft | 459 kts | 276° |
| 2026-05-06 14:12 | 22.84046 | 70.32225 | 35783 ft | 458 kts | 276° |
| 2026-05-06 14:12 | 22.84467 | 70.25333 | 35782 ft | 458 kts | 276° |
| 2026-05-06 14:13 | 22.84884 | 70.18442 | 35780 ft | 458 kts | 275° |
| 2026-05-06 14:13 | 22.85300 | 70.11539 | 35785 ft | 459 kts | 275° |
| 2026-05-06 14:14 | 22.85712 | 70.04632 | 35782 ft | 459 kts | 275° |
| 2026-05-06 14:14 | 22.86122 | 69.97718 | 35779 ft | 459 kts | 275° |
| 2026-05-06 14:15 | 22.86526 | 69.90859 | 35780 ft | 459 kts | 275° |
| 2026-05-06 14:15 | 22.86929 | 69.83950 | 35780 ft | 460 kts | 275° |
| 2026-05-06 14:16 | 22.87332 | 69.77011 | 35786 ft | 461 kts | 275° |
| 2026-05-06 14:16 | 22.87731 | 69.70071 | 35790 ft | 461 kts | 275° |
| 2026-05-06 14:17 | 22.88161 | 69.63174 | 35789 ft | 461 kts | 276° |
| 2026-05-06 14:17 | 22.88617 | 69.56247 | 35795 ft | 461 kts | 276° |
| 2026-05-06 14:18 | 22.89067 | 69.49322 | 35796 ft | 462 kts | 276° |
| 2026-05-06 14:18 | 22.89511 | 69.42359 | 35794 ft | 463 kts | 275° |
| 2026-05-06 14:19 | 22.89950 | 69.35378 | 35792 ft | 463 kts | 275° |
| 2026-05-06 14:19 | 22.90386 | 69.28404 | 35797 ft | 463 kts | 275° |
| 2026-05-06 14:20 | 22.90819 | 69.21432 | 35800 ft | 463 kts | 275° |
| 2026-05-06 14:20 | 22.91248 | 69.14502 | 35798 ft | 465 kts | 275° |
| 2026-05-06 14:21 | 22.91677 | 69.07495 | 35802 ft | 465 kts | 275° |
| 2026-05-06 14:21 | 22.92103 | 69.00492 | 35801 ft | 465 kts | 275° |
| 2026-05-06 14:22 | 22.92526 | 68.93482 | 35801 ft | 465 kts | 275° |
| 2026-05-06 14:22 | 22.92946 | 68.86472 | 35806 ft | 464 kts | 275° |
| 2026-05-06 14:23 | 22.93362 | 68.79494 | 35801 ft | 464 kts | 275° |
| 2026-05-06 14:23 | 22.93774 | 68.72526 | 35810 ft | 465 kts | 275° |
| 2026-05-06 14:24 | 22.94184 | 68.65522 | 35807 ft | 465 kts | 275° |
| 2026-05-06 14:24 | 22.94591 | 68.58528 | 35808 ft | 465 kts | 275° |
| 2026-05-06 14:25 | 22.94996 | 68.51528 | 35800 ft | 465 kts | 275° |
| 2026-05-06 14:25 | 22.95398 | 68.44514 | 35807 ft | 466 kts | 275° |
| 2026-05-06 14:26 | 22.95798 | 68.37483 | 35806 ft | 466 kts | 275° |
| 2026-05-06 14:26 | 22.95957 | 68.30482 | 35807 ft | 467 kts | 271° |
| 2026-05-06 14:27 | 22.95871 | 68.23421 | 35804 ft | 467 kts | 271° |
| 2026-05-06 14:27 | 22.95808 | 68.16366 | 35802 ft | 468 kts | 271° |
| 2026-05-06 14:28 | 22.95791 | 68.09297 | 35807 ft | 468 kts | 271° |
| 2026-05-06 14:28 | 22.95791 | 68.02225 | 35807 ft | 468 kts | 272° |
| 2026-05-06 14:29 | 22.95788 | 67.95157 | 35804 ft | 468 kts | 271° |
| 2026-05-06 14:29 | 22.95780 | 67.88092 | 35804 ft | 468 kts | 271° |
| 2026-05-06 14:30 | 22.95788 | 67.81022 | 35806 ft | 468 kts | 272° |
| 2026-05-06 14:30 | 22.95807 | 67.74011 | 35814 ft | 468 kts | 272° |
| 2026-05-06 14:31 | 22.95823 | 67.66947 | 35810 ft | 468 kts | 272° |
| 2026-05-06 14:31 | 22.95833 | 67.59875 | 35810 ft | 469 kts | 272° |
| 2026-05-06 14:32 | 22.95839 | 67.52808 | 35808 ft | 469 kts | 271° |
| 2026-05-06 14:32 | 22.95843 | 67.45733 | 35812 ft | 469 kts | 271° |
| 2026-05-06 14:33 | 22.95843 | 67.38643 | 35812 ft | 470 kts | 271° |
| 2026-05-06 14:33 | 22.95840 | 67.31551 | 35812 ft | 470 kts | 271° |
| 2026-05-06 14:34 | 22.95834 | 67.24503 | 35813 ft | 470 kts | 271° |
| 2026-05-06 14:34 | 22.95825 | 67.17411 | 35814 ft | 470 kts | 271° |
| 2026-05-06 14:35 | 22.95812 | 67.10308 | 35813 ft | 471 kts | 271° |
| 2026-05-06 14:35 | 22.95796 | 67.03203 | 35818 ft | 470 kts | 271° |
| 2026-05-06 14:36 | 22.95777 | 66.96128 | 35815 ft | 468 kts | 271° |
| 2026-05-06 14:36 | 22.95801 | 66.89051 | 35806 ft | 468 kts | 272° |
| 2026-05-06 14:37 | 22.95857 | 66.81981 | 35816 ft | 469 kts | 272° |
| 2026-05-06 14:37 | 22.95906 | 66.74891 | 35819 ft | 470 kts | 272° |
| 2026-05-06 14:38 | 22.95945 | 66.67797 | 35818 ft | 470 kts | 272° |
| 2026-05-06 14:38 | 22.95977 | 66.60707 | 35814 ft | 470 kts | 272° |
| 2026-05-06 14:39 | 22.96007 | 66.53667 | 35815 ft | 470 kts | 272° |
| 2026-05-06 14:39 | 22.96033 | 66.46510 | 35815 ft | 471 kts | 272° |
| 2026-05-06 14:40 | 22.96057 | 66.39449 | 35815 ft | 471 kts | 272° |
| 2026-05-06 14:40 | 22.96077 | 66.32326 | 35815 ft | 471 kts | 272° |
| 2026-05-06 14:41 | 22.96095 | 66.25212 | 35818 ft | 471 kts | 272° |
| 2026-05-06 14:41 | 22.96109 | 66.18086 | 35818 ft | 472 kts | 271° |
| 2026-05-06 14:42 | 22.96120 | 66.10953 | 35818 ft | 473 kts | 271° |
| 2026-05-06 14:42 | 22.96128 | 66.03813 | 35818 ft | 473 kts | 271° |
| 2026-05-06 14:43 | 22.96133 | 65.96729 | 35821 ft | 473 kts | 271° |
| 2026-05-06 14:43 | 22.96134 | 65.89580 | 35812 ft | 473 kts | 271° |
| 2026-05-06 14:44 | 22.96133 | 65.82449 | 35815 ft | 474 kts | 271° |
| 2026-05-06 14:45 | 22.96124 | 65.71714 | 35818 ft | 474 kts | 271° |
| 2026-05-06 14:45 | 22.96114 | 65.64556 | 35818 ft | 474 kts | 271° |
| 2026-05-06 14:46 | 22.96101 | 65.57407 | 35816 ft | 474 kts | 271° |
| 2026-05-06 14:46 | 22.96085 | 65.50292 | 35818 ft | 475 kts | 271° |
| 2026-05-06 14:47 | 22.96066 | 65.43129 | 35819 ft | 475 kts | 271° |